地図

経路データ

SID SEASON NUMBER BASIN SUBBASIN NAME ISO_TIME NATURE LAT LON WMO_WIND WMO_PRES WMO_AGENCY TRACK_TYPE DIST2LAND LANDFALL IFLAG USA_AGENCY USA_ATCF_ID USA_LAT USA_LON USA_RECORD USA_STATUS USA_WIND USA_PRES USA_SSHS USA_R34_NE USA_R34_SE USA_R34_SW USA_R34_NW USA_R50_NE USA_R50_SE USA_R50_SW USA_R50_NW USA_R64_NE USA_R64_SE USA_R64_SW USA_R64_NW USA_POCI USA_ROCI USA_RMW USA_EYE TOKYO_LAT TOKYO_LON TOKYO_GRADE TOKYO_WIND TOKYO_PRES TOKYO_R50_DIR TOKYO_R50_LONG TOKYO_R50_SHORT TOKYO_R30_DIR TOKYO_R30_LONG TOKYO_R30_SHORT TOKYO_LAND CMA_LAT CMA_LON CMA_CAT CMA_WIND CMA_PRES HKO_LAT HKO_LON HKO_CAT HKO_WIND HKO_PRES NEWDELHI_LAT NEWDELHI_LON NEWDELHI_GRADE NEWDELHI_WIND NEWDELHI_PRES NEWDELHI_CI NEWDELHI_DP NEWDELHI_POCI REUNION_LAT REUNION_LON REUNION_TYPE REUNION_WIND REUNION_PRES REUNION_TNUM REUNION_CI REUNION_RMW REUNION_R34_NE REUNION_R34_SE REUNION_R34_SW REUNION_R34_NW REUNION_R50_NE REUNION_R50_SE REUNION_R50_SW REUNION_R50_NW REUNION_R64_NE REUNION_R64_SE REUNION_R64_SW REUNION_R64_NW BOM_LAT BOM_LON BOM_TYPE BOM_WIND BOM_PRES BOM_TNUM BOM_CI BOM_RMW BOM_R34_NE BOM_R34_SE BOM_R34_SW BOM_R34_NW BOM_R50_NE BOM_R50_SE BOM_R50_SW BOM_R50_NW BOM_R64_NE BOM_R64_SE BOM_R64_SW BOM_R64_NW BOM_ROCI BOM_POCI BOM_EYE BOM_POS_METHOD BOM_PRES_METHOD NADI_LAT NADI_LON NADI_CAT NADI_WIND NADI_PRES WELLINGTON_LAT WELLINGTON_LON WELLINGTON_WIND WELLINGTON_PRES DS824_LAT DS824_LON DS824_STAGE DS824_WIND DS824_PRES TD9636_LAT TD9636_LON TD9636_STAGE TD9636_WIND TD9636_PRES TD9635_LAT TD9635_LON TD9635_WIND TD9635_PRES TD9635_ROCI NEUMANN_LAT NEUMANN_LON NEUMANN_CLASS NEUMANN_WIND NEUMANN_PRES MLC_LAT MLC_LON MLC_CLASS MLC_WIND MLC_PRES USA_GUST BOM_GUST BOM_GUST_PER REUNION_GUST REUNION_GUST_PER USA_SEAHGT USA_SEARAD_NE USA_SEARAD_SE USA_SEARAD_SW USA_SEARAD_NW STORM_SPEED STORM_DIR
1944011S22037 1944 3 SI MM NOT_NAMED 1944-01-11 06:00:00 NR -22.0000 36.9000 reunion main 145 145 _____O________ -1 -22.0000 36.9000 99 9.90000 1 132
1944011S22037 1944 3 SI MM NOT_NAMED 1944-01-11 09:00:00 NR -22.0463 36.9571 main 156 154 _____P________ -1 -22.0463 36.9571 99 1 131
1944011S22037 1944 3 SI MM NOT_NAMED 1944-01-11 12:00:00 NR -22.0965 37.0183 main 154 154 _____P________ -1 -22.0965 37.0183 99 2 133
1944011S22037 1944 3 SI MM NOT_NAMED 1944-01-11 15:00:00 NR -22.1545 37.0876 main 164 164 _____P________ -1 -22.1545 37.0876 99 2 134
1944011S22037 1944 3 SI MM NOT_NAMED 1944-01-11 18:00:00 NR -22.2244 37.1691 main 174 174 _____P________ -1 -22.2244 37.1691 99 2 133
1944011S22037 1944 3 SI MM NOT_NAMED 1944-01-11 21:00:00 NR -22.3100 37.2670 main 185 183 _____P________ -1 -22.3100 37.2670 99 3 134
1944011S22037 1944 3 SI MM NOT_NAMED 1944-01-12 00:00:00 NR -22.4152 37.3853 main 192 189 _____P________ -1 -22.4152 37.3853 99 3 134
1944011S22037 1944 3 SI MM NOT_NAMED 1944-01-12 03:00:00 NR -22.5439 37.5282 main 199 197 _____P________ -1 -22.5439 37.5282 99 4 134
1944011S22037 1944 3 SI MM NOT_NAMED 1944-01-12 06:00:00 NR -22.7000 37.7000 reunion main 216 216 _____O________ -1 -22.7000 37.7000 99 9.90000 5 135
1944011S22037 1944 3 SI MM NOT_NAMED 1944-01-12 09:00:00 NR -22.8858 37.9035 main 235 235 _____P________ -1 -22.8858 37.9035 99 6 135
1944011S22037 1944 3 SI MM NOT_NAMED 1944-01-12 12:00:00 NR -23.0973 38.1360 main 256 256 _____P________ -1 -23.0973 38.1360 99 6 134
1944011S22037 1944 3 SI MM NOT_NAMED 1944-01-12 15:00:00 NR -23.3291 38.3933 main 289 289 _____P________ -1 -23.3291 38.3933 99 7 134
1944011S22037 1944 3 SI MM NOT_NAMED 1944-01-12 18:00:00 NR -23.5755 38.6710 main 326 326 _____P________ -1 -23.5755 38.6710 99 7 134
1944011S22037 1944 3 SI MM NOT_NAMED 1944-01-12 21:00:00 NR -23.8313 38.9650 main 355 355 _____P________ -1 -23.8313 38.9650 99 8 133
1944011S22037 1944 3 SI MM NOT_NAMED 1944-01-13 00:00:00 NR -24.0909 39.2708 main 385 385 _____P________ -1 -24.0909 39.2708 99 8 132
1944011S22037 1944 3 SI MM NOT_NAMED 1944-01-13 03:00:00 NR -24.3489 39.5840 main 411 388 _____P________ -1 -24.3489 39.5840 99 8 132
1944011S22037 1944 3 SI MM NOT_NAMED 1944-01-13 06:00:00 NR -24.6000 39.9000 reunion main 388 362 _____O________ -1 -24.6000 39.9000 99 9.90000 7 132
1944011S22037 1944 3 SI MM NOT_NAMED 1944-01-13 09:00:00 NR -24.8184 40.1660 main 362 345 _____P________ -1 -24.8184 40.1660 99 7 132
1944011S22037 1944 3 SI MM NOT_NAMED 1944-01-13 12:00:00 NR -25.0324 40.4339 main 345 319 _____P________ -1 -25.0324 40.4339 99 7 131
1944011S22037 1944 3 SI MM NOT_NAMED 1944-01-13 15:00:00 NR -25.2434 40.7094 main 319 295 _____P________ -1 -25.2434 40.7094 99 7 129
1944011S22037 1944 3 SI MM NOT_NAMED 1944-01-13 18:00:00 NR -25.4528 40.9980 main 299 275 _____P________ -1 -25.4528 40.9980 99 7 128
1944011S22037 1944 3 SI MM NOT_NAMED 1944-01-13 21:00:00 NR -25.6618 41.3056 main 279 256 _____P________ -1 -25.6618 41.3056 99 7 126
1944011S22037 1944 3 SI MM NOT_NAMED 1944-01-14 00:00:00 NR -25.8719 41.6379 main 260 235 _____P________ -1 -25.8719 41.6379 99 8 124
1944011S22037 1944 3 SI MM NOT_NAMED 1944-01-14 03:00:00 NR -26.0843 42.0007 main 235 216 _____P________ -1 -26.0843 42.0007 99 8 122
1944011S22037 1944 3 SI MM NOT_NAMED 1944-01-14 06:00:00 NR -26.3000 42.4000 reunion main 216 203 _____O________ -1 -26.3000 42.4000 99 9.90000 9 118
1944011S22037 1944 3 SI MM NOT_NAMED 1944-01-14 09:00:00 NR -26.4880 42.8421 main 206 188 _____P________ -1 -26.4880 42.8421 99 9 114
1944011S22037 1944 3 SI MM NOT_NAMED 1944-01-14 12:00:00 NR -26.6739 43.3203 main 191 177 _____P________ -1 -26.6739 43.3203 99 10 113
1944011S22037 1944 3 SI MM NOT_NAMED 1944-01-14 15:00:00 NR -26.8641 43.8302 main 188 180 _____P________ -1 -26.8641 43.8302 99 10 113
1944011S22037 1944 3 SI MM NOT_NAMED 1944-01-14 18:00:00 NR -27.0647 44.3671 main 185 177 _____P________ -1 -27.0647 44.3671 99 11 113
1944011S22037 1944 3 SI MM NOT_NAMED 1944-01-14 21:00:00 NR -27.2822 44.9266 main 192 190 _____P________ -1 -27.2822 44.9266 99 11 114
1944011S22037 1944 3 SI MM NOT_NAMED 1944-01-15 00:00:00 NR -27.5228 45.5046 main 212 212 _____P________ -1 -27.5228 45.5046 99 12 116
1944011S22037 1944 3 SI MM NOT_NAMED 1944-01-15 03:00:00 NR -27.7933 46.0971 main 252 252 _____P________ -1 -27.7933 46.0971 99 12 119
1944011S22037 1944 3 SI MM NOT_NAMED 1944-01-15 06:00:00 NR -28.1000 46.7000 reunion main 303 303 _____O________ -1 -28.1000 46.7000 99 9.90000 13 123
1944011S22037 1944 3 SI MM NOT_NAMED 1944-01-15 09:00:00 NR -28.5154 47.3685 main 373 373 _____P________ -1 -28.5154 47.3685 99 15 126
1944011S22037 1944 3 SI MM NOT_NAMED 1944-01-15 12:00:00 NR -28.9734 48.0644 main 443 443 _____P________ -1 -28.9734 48.0644 99 15 127
1944011S22037 1944 3 SI MM NOT_NAMED 1944-01-15 15:00:00 NR -29.4555 48.7708 main 519 519 _____P________ -1 -29.4555 48.7708 99 16 128
1944011S22037 1944 3 SI MM NOT_NAMED 1944-01-15 18:00:00 NR -29.9434 49.4696 main 588 588 _____P________ -1 -29.9434 49.4696 99 15 129
1944011S22037 1944 3 SI MM NOT_NAMED 1944-01-15 21:00:00 NR -30.4191 50.1420 main 664 664 _____P________ -1 -30.4191 50.1420 99 15 129
1944011S22037 1944 3 SI MM NOT_NAMED 1944-01-16 00:00:00 NR -30.8652 50.7682 main 747 747 _____P________ -1 -30.8652 50.7682 99 13 130
1944011S22037 1944 3 SI MM NOT_NAMED 1944-01-16 03:00:00 NR -31.2645 51.3279 main 809 809 _____P________ -1 -31.2645 51.3279 99 11 130
1944011S22037 1944 3 SI MM NOT_NAMED 1944-01-16 06:00:00 NR -31.6000 51.8000 reunion main 863 863 _____O________ -1 -31.6000 51.8000 99 9.90000 9 130
1944011S22037 1944 3 SI MM NOT_NAMED 1944-01-16 09:00:00 NR -31.8598 52.1687 main 912 912 _____P________ -1 -31.8598 52.1687 99 7 130
1944011S22037 1944 3 SI MM NOT_NAMED 1944-01-16 12:00:00 NR -32.0500 52.4410 main 941 941 _____P________ -1 -32.0500 52.4410 99 5 129
1944011S22037 1944 3 SI MM NOT_NAMED 1944-01-16 15:00:00 NR -32.1812 52.6297 main 961 961 _____P________ -1 -32.1812 52.6297 99 3 129
1944011S22037 1944 3 SI MM NOT_NAMED 1944-01-16 18:00:00 NR -32.2634 52.7483 main 976 976 _____P________ -1 -32.2634 52.7483 99 2 129
1944011S22037 1944 3 SI MM NOT_NAMED 1944-01-16 21:00:00 NR -32.3066 52.8106 main 982 982 _____P________ -1 -32.3066 52.8106 99 1 130
1944011S22037 1944 3 SI MM NOT_NAMED 1944-01-17 00:00:00 NR -32.3206 52.8306 main 982 982 _____P________ -1 -32.3206 52.8306 99 0 0
1944011S22037 1944 3 SI MM NOT_NAMED 1944-01-17 03:00:00 NR -32.3152 52.8224 main 982 982 _____P________ -1 -32.3152 52.8224 99 0 0
1944011S22037 1944 3 SI MM NOT_NAMED 1944-01-17 06:00:00 NR -32.3000 52.8000 reunion main 982 _____O________ -1 -32.3000 52.8000 99 9.90000 0 0

IBTrACS Databaseについて

本データベースは、米国NOAAが公開する1842年以降の世界の熱帯低気圧のベストトラックデータアーカイブInternational Best Track Archive for Climate Stewardship (IBTrACS)を、ウェブで閲覧しやすい形式に変換したものです。

最終更新日:2021-11-26